KBJC/BJC METAR and TAF weather

Enter ICAO airport designator
Station Type Date Time Source
KBJC METAR 2019/08/25 14:50 UTC NOAA

KBJC 251450Z 25006KT 10SM FEW200 29/00 A3005


Station Type Date Time Source
KBJC Decoded METAR 2019/08/25 14:50 UTC NOAA

Station name not available
Aug 25, 2019 - 10:50 AM EDT / 2019.08.25 1450 UTC
Wind: from the WSW (250 degrees) at 7 MPH (6 KT):0
Visibility: 10 mile(s):0
Sky conditions: mostly clear
Temperature: 84 F (29 C)
Dew Point: 32 F (0 C)
Relative Humidity: 15%
Pressure (altimeter): 30.05 in. Hg (1017 hPa)
ob: KBJC 251450Z 25006KT 10SM FEW200 29/00 A3005
cycle: 15

Station Type Date Time Source
KBJC TAF 2019/08/25 12:22 UTC NOAA

TAF KBJC 251120Z 2512/2612 27006KT P6SM SCT200
FM251600 29014G22KT P6SM FEW120
FM261000 33016G24KT P6SM SKC

Example: see airport list